Time;durP1;ratioP1;P1;durP2;ratioP2;P2;SDS_P1;SDS_P2;PMS_P1;PMS_P2;Temp;Humidity;BMP_temperature;BMP_pressure;BME280_temperature;BME280_humidity;BME280_pressure;Samples;Min_cycle;Max_cycle;Signal;HPM_P1;HPM_P2
2023/05/30 00:00:43;;;;;;;75.18;6.72;;;;;;;;;;5072492;28;20585;-76
2023/05/30 00:03:10;;;;;;;96.80;9.27;;;;;;;;;;5071713;28;20563;-79
2023/05/30 00:05:37;;;;;;;70.28;7.90;;;;;;;;;;5072252;28;20044;-77
2023/05/30 00:08:04;;;;;;;69.40;6.97;;;;;;;;;;5073007;28;20405;-76
2023/05/30 00:10:31;;;;;;;71.03;7.03;;;;;;;;;;5053654;28;20052;-76
2023/05/30 00:12:57;;;;;;;78.05;7.43;;;;;;;;;;5068417;28;20039;-76
2023/05/30 00:15:25;;;;;;;87.13;7.65;;;;;;;;;;5068473;28;20052;-76
2023/05/30 00:17:52;;;;;;;38.72;5.30;;;;;;;;;;5073139;28;20394;-76
2023/05/30 00:20:22;;;;;;;42.42;4.70;;;;;;;;;;5036571;28;20499;-77
2023/05/30 00:22:49;;;;;;;81.90;7.40;;;;;;;;;;5070378;28;20044;-75
2023/05/30 00:25:20;;;;;;;72.00;6.82;;;;;;;;;;5051828;28;20036;-76
2023/05/30 00:27:47;;;;;;;55.47;5.40;;;;;;;;;;5049713;28;20128;-75
2023/05/30 00:30:14;;;;;;;116.22;9.88;;;;;;;;;;5053986;28;20036;-75
2023/05/30 00:32:40;;;;;;;51.13;5.53;;;;;;;;;;5072354;28;20044;-76
2023/05/30 00:35:07;;;;;;;55.33;5.47;;;;;;;;;;5070143;28;20047;-75
2023/05/30 00:37:34;;;;;;;75.63;6.68;;;;;;;;;;5037336;28;20040;-75
2023/05/30 00:40:01;;;;;;;54.30;5.32;;;;;;;;;;5048884;28;20098;-76
2023/05/30 00:42:27;;;;;;;87.57;7.68;;;;;;;;;;5053141;28;20551;-77
2023/05/30 00:44:54;;;;;;;56.38;4.78;;;;;;;;;;5052212;28;20052;-76
2023/05/30 00:47:21;;;;;;;49.38;5.38;;;;;;;;;;5056414;28;20079;-75
2023/05/30 00:49:49;;;;;;;47.03;4.93;;;;;;;;;;5067108;28;20060;-76
2023/05/30 00:52:17;;;;;;;62.30;5.78;;;;;;;;;;5071919;28;20044;-74
2023/05/30 00:54:45;;;;;;;56.88;5.63;;;;;;;;;;5049643;28;20045;-74
2023/05/30 00:57:12;;;;;;;52.33;4.95;;;;;;;;;;5057970;28;20460;-77
2023/05/30 00:59:38;;;;;;;52.53;5.88;;;;;;;;;;5072100;28;20045;-75
2023/05/30 01:02:05;;;;;;;99.07;8.60;;;;;;;;;;5048086;28;20398;-76
2023/05/30 01:04:32;;;;;;;52.15;5.55;;;;;;;;;;5049263;28;20132;-77
2023/05/30 01:06:59;;;;;;;70.85;6.70;;;;;;;;;;5048346;28;20041;-76
2023/05/30 01:09:26;;;;;;;78.20;7.72;;;;;;;;;;5061582;28;20048;-76
2023/05/30 01:11:58;;;;;;;53.42;5.45;;;;;;;;;;5052888;28;20052;-76
2023/05/30 01:14:30;;;;;;;71.88;6.75;;;;;;;;;;5048213;28;20521;-77
2023/05/30 01:16:59;;;;;;;45.30;7.32;;;;;;;;;;5054118;28;20405;-76
2023/05/30 01:19:26;;;;;;;128.65;9.93;;;;;;;;;;5059632;28;20040;-76
2023/05/30 01:21:58;;;;;;;61.15;6.65;;;;;;;;;;5071888;28;20064;-77
2023/05/30 01:24:35;;;;;;;53.75;5.50;;;;;;;;;;5050792;28;20466;-76
2023/05/30 01:27:06;;;;;;;27.63;3.72;;;;;;;;;;5073017;28;20040;-75
2023/05/30 01:29:33;;;;;;;45.05;5.00;;;;;;;;;;5053453;28;20135;-76
2023/05/30 01:32:00;;;;;;;27.27;3.83;;;;;;;;;;5071501;28;20469;-75
2023/05/30 01:34:28;;;;;;;61.78;6.20;;;;;;;;;;5069554;28;20438;-78
2023/05/30 01:36:54;;;;;;;36.63;4.57;;;;;;;;;;5053113;28;20135;-75
2023/05/30 01:39:21;;;;;;;69.32;6.65;;;;;;;;;;5053636;28;20043;-78
2023/05/30 01:41:54;;;;;;;75.00;6.78;;;;;;;;;;5070820;28;20047;-76
2023/05/30 01:44:29;;;;;;;48.53;4.75;;;;;;;;;;5053964;28;20555;-76
2023/05/30 01:47:05;;;;;;;26.65;4.25;;;;;;;;;;5049896;28;20401;-76
2023/05/30 01:49:42;;;;;;;42.58;4.30;;;;;;;;;;5054028;28;20511;-75
2023/05/30 01:52:14;;;;;;;114.90;8.90;;;;;;;;;;5048779;28;20091;-75
2023/05/30 01:54:43;;;;;;;97.05;8.32;;;;;;;;;;5055620;28;20036;-77
2023/05/30 01:57:15;;;;;;;43.40;4.28;;;;;;;;;;5056564;28;20076;-80
2023/05/30 01:59:42;;;;;;;91.10;7.85;;;;;;;;;;5055935;28;20102;-76
2023/05/30 02:02:12;;;;;;;44.22;4.40;;;;;;;;;;5048222;22;20057;-80
2023/05/30 02:04:39;;;;;;;53.15;5.38;;;;;;;;;;5011099;28;20490;-80
2023/05/30 02:07:05;;;;;;;45.88;4.45;;;;;;;;;;4993480;28;20037;-80
2023/05/30 02:09:32;;;;;;;95.55;7.60;;;;;;;;;;5006164;28;20041;-79
2023/05/30 02:12:01;;;;;;;58.10;5.05;;;;;;;;;;5002901;28;20054;-81
2023/05/30 02:14:29;;;;;;;37.35;4.22;;;;;;;;;;5009883;28;20045;-79
2023/05/30 02:16:59;;;;;;;121.35;10.90;;;;;;;;;;5008877;28;20054;-80
2023/05/30 02:19:27;;;;;;;29.13;3.78;;;;;;;;;;5013750;28;20419;-79
2023/05/30 02:21:54;;;;;;;122.32;9.80;;;;;;;;;;5014666;28;20079;-79
2023/05/30 02:24:23;;;;;;;57.05;5.40;;;;;;;;;;5000276;28;20054;-79
2023/05/30 02:26:52;;;;;;;70.55;6.30;;;;;;;;;;5011983;28;20445;-78
2023/05/30 02:29:19;;;;;;;47.88;4.90;;;;;;;;;;5012222;28;20072;-81
2023/05/30 02:31:46;;;;;;;38.33;4.20;;;;;;;;;;5010854;28;20045;-77
2023/05/30 02:34:13;;;;;;;88.90;7.50;;;;;;;;;;5010184;28;20037;-79
2023/05/30 02:36:40;;;;;;;98.07;8.15;;;;;;;;;;5011583;28;20049;-82
2023/05/30 02:39:08;;;;;;;92.53;8.30;;;;;;;;;;4997371;28;20069;-81
2023/05/30 02:41:38;;;;;;;43.25;4.32;;;;;;;;;;4995399;28;20460;-81
2023/05/30 02:44:06;;;;;;;46.35;4.75;;;;;;;;;;5014991;28;20073;-78
2023/05/30 02:46:34;;;;;;;58.45;6.35;;;;;;;;;;5014324;28;20455;-78
2023/05/30 02:49:01;;;;;;;58.35;5.55;;;;;;;;;;5003017;28;20109;-77
2023/05/30 02:51:29;;;;;;;94.60;7.90;;;;;;;;;;5005832;28;20049;-80
2023/05/30 02:53:57;;;;;;;55.42;7.00;;;;;;;;;;4999995;28;20057;-79
2023/05/30 02:56:38;;;;;;;54.03;7.07;;;;;;;;;;5003750;28;20065;-82
2023/05/30 02:59:11;;;;;;;86.45;7.38;;;;;;;;;;4985180;28;20045;-80
2023/05/30 03:01:45;;;;;;;51.15;5.18;;;;;;;;;;4986711;28;20724;-83
2023/05/30 03:04:12;;;;;;;59.40;5.35;;;;;;;;;;5001522;28;20057;-78
2023/05/30 03:06:42;;;;;;;111.68;9.57;;;;;;;;;;4994840;28;20131;-82
2023/05/30 03:09:16;;;;;;;89.35;7.68;;;;;;;;;;5008163;28;20046;-80
2023/05/30 03:11:43;;;;;;;47.55;6.70;;;;;;;;;;4986004;28;20081;-81
2023/05/30 03:14:10;;;;;;;69.78;6.68;;;;;;;;;;5008980;28;20046;-80
2023/05/30 03:16:39;;;;;;;246.73;19.02;;;;;;;;;;4998681;28;20055;-80
2023/05/30 03:19:08;;;;;;;83.05;7.13;;;;;;;;;;5001852;28;20449;-81
2023/05/30 03:21:36;;;;;;;103.10;7.43;;;;;;;;;;5006894;28;20064;-79
2023/05/30 03:24:04;;;;;;;51.35;5.50;;;;;;;;;;5007063;28;20046;-80
2023/05/30 03:26:35;;;;;;;129.45;9.88;;;;;;;;;;5009018;28;20093;-80
2023/05/30 03:29:02;;;;;;;49.95;5.05;;;;;;;;;;5007895;28;20050;-82
2023/05/30 03:31:29;;;;;;;44.25;4.10;;;;;;;;;;5005035;28;20050;-79
2023/05/30 03:33:56;;;;;;;290.73;19.80;;;;;;;;;;5011631;28;20059;-81
2023/05/30 03:36:24;;;;;;;94.05;8.25;;;;;;;;;;5017925;28;20049;-81
2023/05/30 03:38:51;;;;;;;36.45;4.28;;;;;;;;;;5026063;28;20128;-81
2023/05/30 03:41:17;;;;;;;52.45;4.57;;;;;;;;;;5009904;28;20049;-79
2023/05/30 03:43:45;;;;;;;123.15;9.65;;;;;;;;;;5007218;28;20049;-81
2023/05/30 03:46:14;;;;;;;51.78;4.60;;;;;;;;;;4989353;28;20072;-80
2023/05/30 03:48:44;;;;;;;76.63;6.05;;;;;;;;;;4996060;28;20045;-79
2023/05/30 03:51:12;;;;;;;74.97;6.28;;;;;;;;;;5002523;28;20053;-83
2023/05/30 03:53:39;;;;;;;44.72;4.00;;;;;;;;;;5006573;28;20069;-80
2023/05/30 03:56:06;;;;;;;131.88;9.90;;;;;;;;;;4986761;28;20042;-80
2023/05/30 03:58:33;;;;;;;60.85;5.70;;;;;;;;;;5007587;28;20049;-79
2023/05/30 04:01:03;;;;;;;50.90;4.97;;;;;;;;;;5007287;28;20041;-85
2023/05/30 04:03:30;;;;;;;132.75;10.73;;;;;;;;;;4997138;28;20501;-81
2023/05/30 04:05:58;;;;;;;44.42;4.32;;;;;;;;;;5026020;28;20450;-78
2023/05/30 04:08:27;;;;;;;133.50;11.73;;;;;;;;;;5003585;28;20092;-79
2023/05/30 04:10:54;;;;;;;85.80;7.18;;;;;;;;;;5005544;28;20544;-80
2023/05/30 04:13:21;;;;;;;72.80;6.53;;;;;;;;;;5027008;28;20147;-78
2023/05/30 04:15:49;;;;;;;41.40;4.10;;;;;;;;;;5009216;28;20042;-82
2023/05/30 04:18:16;;;;;;;55.03;5.05;;;;;;;;;;5019254;28;20045;-83
2023/05/30 04:20:43;;;;;;;99.80;8.48;;;;;;;;;;5012747;28;20515;-78
2023/05/30 04:23:10;;;;;;;162.07;12.82;;;;;;;;;;5010604;28;20045;-80
2023/05/30 04:25:40;;;;;;;116.28;9.55;;;;;;;;;;5014340;28;20045;-82
2023/05/30 04:28:08;;;;;;;52.17;4.72;;;;;;;;;;4991119;28;20133;-80
2023/05/30 04:30:35;;;;;;;103.43;8.18;;;;;;;;;;5003762;28;20099;-74
2023/05/30 04:33:02;;;;;;;52.65;5.25;;;;;;;;;;5003021;28;20132;-78
2023/05/30 04:35:30;;;;;;;27.63;3.47;;;;;;;;;;5006025;28;20064;-76
2023/05/30 04:37:58;;;;;;;99.50;7.72;;;;;;;;;;4995777;28;20057;-86
2023/05/30 04:40:27;;;;;;;82.57;6.90;;;;;;;;;;5022520;28;20581;-77
2023/05/30 04:42:55;;;;;;;67.40;9.13;;;;;;;;;;5005653;28;20399;-85
2023/05/30 04:45:28;;;;;;;88.22;7.10;;;;;;;;;;5003702;28;20053;-80
2023/05/30 04:47:55;;;;;;;67.80;6.00;;;;;;;;;;5012228;28;20073;-76
2023/05/30 04:50:24;;;;;;;47.45;3.97;;;;;;;;;;5001053;28;20435;-77
2023/05/30 04:52:53;;;;;;;56.47;5.28;;;;;;;;;;5009689;28;20049;-78
2023/05/30 04:55:30;;;;;;;101.55;8.50;;;;;;;;;;5016893;28;20037;-80
2023/05/30 04:58:05;;;;;;;65.20;5.85;;;;;;;;;;5022622;28;20061;-75
2023/05/30 05:00:50;;;;;;;137.85;10.63;;;;;;;;;;4984673;28;20057;-77
2023/05/30 05:03:24;;;;;;;111.68;8.27;;;;;;;;;;5014262;28;20077;-80
2023/05/30 05:06:03;;;;;;;121.85;8.93;;;;;;;;;;4996916;28;20385;-76
2023/05/30 05:08:42;;;;;;;200.68;13.95;;;;;;;;;;4989893;28;20053;-75
2023/05/30 05:11:21;;;;;;;54.20;5.03;;;;;;;;;;4990873;28;20064;-73
2023/05/30 05:13:55;;;;;;;128.45;8.63;;;;;;;;;;5005887;28;20042;-75
2023/05/30 05:16:36;;;;;;;56.88;4.20;;;;;;;;;;5003479;28;20128;-75
2023/05/30 05:19:11;;;;;;;103.53;7.22;;;;;;;;;;4999194;28;20490;-73
2023/05/30 05:21:46;;;;;;;59.20;4.57;;;;;;;;;;5008644;28;20034;-73
2023/05/30 05:24:20;;;;;;;48.15;3.80;;;;;;;;;;5004470;28;20049;-76
2023/05/30 05:26:58;;;;;;;110.65;8.52;;;;;;;;;;4998568;28;20402;-76
2023/05/30 05:29:34;;;;;;;51.90;5.35;;;;;;;;;;5009040;28;20045;-76
2023/05/30 05:32:11;;;;;;;142.85;12.02;;;;;;;;;;5008818;28;20116;-75
2023/05/30 05:34:43;;;;;;;70.70;8.25;;;;;;;;;;5019577;28;20037;-76
2023/05/30 05:37:24;;;;;;;120.80;11.30;;;;;;;;;;5019975;28;20038;-79
2023/05/30 05:40:05;;;;;;;80.43;7.45;;;;;;;;;;5006624;28;20045;-76
2023/05/30 05:42:47;;;;;;;77.60;7.55;;;;;;;;;;5005406;28;20395;-77
2023/05/30 05:45:28;;;;;;;165.20;13.93;;;;;;;;;;4988915;28;20141;-74
2023/05/30 05:48:02;;;;;;;159.07;11.30;;;;;;;;;;4994535;28;20068;-78
2023/05/30 05:50:40;;;;;;;78.60;7.45;;;;;;;;;;5001443;28;20073;-75
2023/05/30 05:53:24;;;;;;;58.17;5.63;;;;;;;;;;5022107;28;20116;-76
2023/05/30 05:56:00;;;;;;;70.80;6.80;;;;;;;;;;5011004;28;20054;-81
2023/05/30 05:58:30;;;;;;;98.20;9.15;;;;;;;;;;5016893;28;20026;-75
2023/05/30 06:01:11;;;;;;;58.15;5.72;;;;;;;;;;4988203;28;20057;-77
2023/05/30 06:03:50;;;;;;;73.55;7.22;;;;;;;;;;4969160;28;20705;-79
2023/05/30 06:06:25;;;;;;;97.95;8.63;;;;;;;;;;4995024;28;20069;-80
2023/05/30 06:08:57;;;;;;;152.05;12.00;;;;;;;;;;4995283;28;20050;-80
2023/05/30 06:11:35;;;;;;;76.32;7.05;;;;;;;;;;4982963;28;20046;-75
2023/05/30 06:14:13;;;;;;;71.60;6.50;;;;;;;;;;4985912;28;20591;-77
2023/05/30 06:16:52;;;;;;;46.30;5.97;;;;;;;;;;5001698;28;20125;-75
2023/05/30 06:19:31;;;;;;;122.15;10.23;;;;;;;;;;4989133;28;20567;-78
2023/05/30 06:22:14;;;;;;;237.60;17.63;;;;;;;;;;4999880;28;20554;-74
2023/05/30 06:24:51;;;;;;;72.35;6.72;;;;;;;;;;4978758;28;20050;-78
2023/05/30 06:27:23;;;;;;;81.22;7.70;;;;;;;;;;4990936;28;20507;-82
2023/05/30 06:29:54;;;;;;;85.80;7.47;;;;;;;;;;4990137;28;20217;-75
2023/05/30 06:32:32;;;;;;;51.33;4.93;;;;;;;;;;4971767;28;20427;-79
2023/05/30 06:35:10;;;;;;;267.90;16.90;;;;;;;;;;4988220;28;20276;-80
2023/05/30 06:37:49;;;;;;;49.40;5.20;;;;;;;;;;4978729;28;20034;-76
2023/05/30 06:40:32;;;;;;;44.00;4.68;;;;;;;;;;4996079;28;20042;-79
2023/05/30 06:43:06;;;;;;;52.90;5.55;;;;;;;;;;4989105;28;20042;-75
2023/05/30 06:45:45;;;;;;;81.15;7.13;;;;;;;;;;4981185;28;20069;-78
2023/05/30 06:48:26;;;;;;;219.05;15.90;;;;;;;;;;4988252;28;20050;-76
2023/05/30 06:51:06;;;;;;;227.85;16.98;;;;;;;;;;4987869;28;20046;-80
2023/05/30 06:53:42;;;;;;;78.95;6.65;;;;;;;;;;4986961;28;20066;-77
2023/05/30 06:56:21;;;;;;;126.53;10.43;;;;;;;;;;4982224;28;20068;-75
2023/05/30 06:59:05;;;;;;;92.53;8.80;;;;;;;;;;4976651;28;20133;-75
2023/05/30 07:01:41;;;;;;;47.85;5.70;;;;;;;;;;4996893;28;20049;-77
2023/05/30 07:04:23;;;;;;;85.90;9.40;;;;;;;;;;5017438;28;20092;-78
2023/05/30 07:07:01;;;;;;;43.43;6.23;;;;;;;;;;5013529;28;20052;-74
2023/05/30 07:09:36;;;;;;;146.45;12.63;;;;;;;;;;5019615;28;20084;-81
2023/05/30 07:12:11;;;;;;;84.80;7.78;;;;;;;;;;5013093;28;20041;-74
2023/05/30 07:14:47;;;;;;;55.60;7.13;;;;;;;;;;5011121;28;20073;-74
2023/05/30 07:17:26;;;;;;;100.00;9.23;;;;;;;;;;4992523;28;20042;-74
2023/05/30 07:20:03;;;;;;;526.70;37.78;;;;;;;;;;5007762;28;20107;-80
2023/05/30 07:22:42;;;;;;;132.68;11.50;;;;;;;;;;5000886;28;20046;-79
2023/05/30 07:25:21;;;;;;;94.22;8.00;;;;;;;;;;5021967;28;20049;-79
2023/05/30 07:27:59;;;;;;;47.28;4.97;;;;;;;;;;5001805;28;20054;-77
2023/05/30 07:30:39;;;;;;;36.25;4.90;;;;;;;;;;5010957;28;20061;-76
2023/05/30 07:33:18;;;;;;;63.90;6.10;;;;;;;;;;5006813;28;20050;-75
2023/05/30 07:35:54;;;;;;;43.08;3.90;;;;;;;;;;4991630;28;20128;-75
2023/05/30 07:38:35;;;;;;;45.20;4.78;;;;;;;;;;5006858;28;20037;-76
2023/05/30 07:41:15;;;;;;;63.08;6.32;;;;;;;;;;5004980;28;20137;-74
2023/05/30 07:43:53;;;;;;;107.60;9.65;;;;;;;;;;5022724;28;20068;-75
2023/05/30 07:46:35;;;;;;;64.40;4.60;;;;;;;;;;5025003;28;20091;-83
2023/05/30 07:49:15;;;;;;;66.82;5.47;;;;;;;;;;5011119;28;20050;-75
2023/05/30 07:51:52;;;;;;;64.75;5.32;;;;;;;;;;5000528;28;20048;-79
2023/05/30 07:54:34;;;;;;;66.30;5.50;;;;;;;;;;5007618;28;20473;-80
2023/05/30 07:57:13;;;;;;;40.10;3.55;;;;;;;;;;5017437;28;20760;-77
2023/05/30 07:59:50;;;;;;;98.00;8.00;;;;;;;;;;5015652;28;20045;-79
2023/05/30 08:02:25;;;;;;;38.20;3.88;;;;;;;;;;5012688;28;20116;-77
2023/05/30 08:05:09;;;;;;;68.05;6.57;;;;;;;;;;5011217;28;20037;-77
2023/05/30 08:07:48;;;;;;;44.67;4.00;;;;;;;;;;5019042;28;20517;-79
2023/05/30 08:10:26;;;;;;;115.00;8.88;;;;;;;;;;5004984;28;20042;-77
2023/05/30 08:13:02;;;;;;;105.55;8.02;;;;;;;;;;5017585;28;20049;-76
2023/05/30 08:15:38;;;;;;;61.50;5.90;;;;;;;;;;5004667;28;20053;-79
2023/05/30 08:18:13;;;;;;;86.90;6.68;;;;;;;;;;4992862;28;20045;-77
2023/05/30 08:20:54;;;;;;;39.55;3.72;;;;;;;;;;5025033;28;20561;-78
2023/05/30 08:23:34;;;;;;;104.13;6.97;;;;;;;;;;5025043;28;20037;-77
2023/05/30 08:26:13;;;;;;;151.35;13.95;;;;;;;;;;5005093;28;20127;-79
2023/05/30 08:28:52;;;;;;;41.30;3.55;;;;;;;;;;5013751;28;20045;-77
2023/05/30 08:31:30;;;;;;;61.22;4.47;;;;;;;;;;5014246;28;20052;-79
2023/05/30 08:34:05;;;;;;;40.83;3.90;;;;;;;;;;5006591;28;20042;-78
2023/05/30 08:36:46;;;;;;;77.32;5.93;;;;;;;;;;4975979;28;20058;-78
2023/05/30 08:39:26;;;;;;;59.08;4.80;;;;;;;;;;5011266;28;20514;-77
2023/05/30 08:42:06;;;;;;;71.15;5.68;;;;;;;;;;5000377;28;20057;-77
2023/05/30 08:44:45;;;;;;;55.15;4.80;;;;;;;;;;5002536;28;20053;-76
2023/05/30 08:47:24;;;;;;;49.13;4.88;;;;;;;;;;5005905;28;20054;-78
2023/05/30 08:50:07;;;;;;;50.75;4.15;;;;;;;;;;5000818;28;20041;-79
2023/05/30 08:52:45;;;;;;;45.13;2.95;;;;;;;;;;5017672;28;20049;-80
2023/05/30 08:55:21;;;;;;;43.90;3.70;;;;;;;;;;5017146;28;20048;-78
2023/05/30 08:58:04;;;;;;;33.70;2.70;;;;;;;;;;5003245;28;20518;-79
2023/05/30 09:00:44;;;;;;;115.00;7.63;;;;;;;;;;5000023;28;20045;-81
2023/05/30 09:03:18;;;;;;;38.63;3.22;;;;;;;;;;5003452;28;20442;-81
2023/05/30 09:05:57;;;;;;;219.30;20.92;;;;;;;;;;5003108;28;20048;-78
2023/05/30 09:08:39;;;;;;;47.80;4.20;;;;;;;;;;5020878;28;20616;-78
2023/05/30 09:11:17;;;;;;;56.35;4.93;;;;;;;;;;5008052;28;20046;-79
2023/05/30 09:13:53;;;;;;;39.72;4.50;;;;;;;;;;4999390;28;20115;-80
2023/05/30 09:16:32;;;;;;;51.60;4.80;;;;;;;;;;5006440;28;20046;-81
2023/05/30 09:19:09;;;;;;;58.50;4.90;;;;;;;;;;5023954;28;20049;-81
2023/05/30 09:21:43;;;;;;;47.88;4.80;;;;;;;;;;5020884;28;20037;-78
2023/05/30 09:24:21;;;;;;;56.67;4.15;;;;;;;;;;5023037;28;20423;-78
2023/05/30 09:27:02;;;;;;;94.78;7.68;;;;;;;;;;5019444;28;20034;-79
2023/05/30 09:29:47;;;;;;;35.42;3.25;;;;;;;;;;4994319;28;20052;-79
2023/05/30 09:32:34;;;;;;;37.92;3.35;;;;;;;;;;5021759;28;20567;-78
2023/05/30 09:35:12;;;;;;;51.65;3.80;;;;;;;;;;5009612;28;20046;-77
2023/05/30 09:37:50;;;;;;;309.73;28.75;;;;;;;;;;5011300;28;20051;-81
2023/05/30 09:40:31;;;;;;;56.13;4.13;;;;;;;;;;5018454;28;20137;-78
2023/05/30 09:43:11;;;;;;;123.28;10.23;;;;;;;;;;4995429;28;20491;-81
2023/05/30 09:45:48;;;;;;;62.13;5.25;;;;;;;;;;5003429;28;20095;-77
2023/05/30 09:48:31;;;;;;;85.28;7.13;;;;;;;;;;4985484;28;20061;-83
2023/05/30 09:51:04;;;;;;;54.55;4.55;;;;;;;;;;5000497;28;20498;-78
2023/05/30 09:53:54;;;;;;;30.35;2.75;;;;;;;;;;5012204;28;20053;-82
2023/05/30 09:56:32;;;;;;;35.55;3.63;;;;;;;;;;5004743;28;20091;-77
2023/05/30 09:59:17;;;;;;;45.38;3.83;;;;;;;;;;5006425;28;20045;-77
2023/05/30 10:01:57;;;;;;;71.60;5.50;;;;;;;;;;5026482;28;20037;-77
2023/05/30 10:04:41;;;;;;;51.90;4.20;;;;;;;;;;5009552;28;20060;-79
2023/05/30 10:07:14;;;;;;;76.65;5.63;;;;;;;;;;5004724;28;20042;-77
2023/05/30 10:09:46;;;;;;;39.60;3.05;;;;;;;;;;5020617;28;20057;-79
2023/05/30 10:12:23;;;;;;;72.97;4.00;;;;;;;;;;4995902;28;20053;-81
2023/05/30 10:14:57;;;;;;;54.28;4.40;;;;;;;;;;5010956;28;20050;-77
2023/05/30 10:17:38;;;;;;;30.55;3.00;;;;;;;;;;5010117;28;20129;-81
2023/05/30 10:20:14;;;;;;;52.63;4.60;;;;;;;;;;5004547;28;20053;-78
2023/05/30 10:22:53;;;;;;;45.10;3.33;;;;;;;;;;4989069;28;20042;-77
2023/05/30 10:25:33;;;;;;;283.70;24.45;;;;;;;;;;5018227;28;20041;-79
2023/05/30 10:28:18;;;;;;;49.63;3.75;;;;;;;;;;4994444;28;20049;-79
2023/05/30 10:30:53;;;;;;;64.03;5.70;;;;;;;;;;4999728;28;20052;-80
2023/05/30 10:33:28;;;;;;;51.28;4.63;;;;;;;;;;5002842;28;20132;-78
2023/05/30 10:36:25;;;;;;;53.70;4.57;;;;;;;;;;5006784;28;20130;-78
2023/05/30 10:39:06;;;;;;;55.03;5.15;;;;;;;;;;5017331;28;20136;-78
2023/05/30 10:41:56;;;;;;;35.45;3.63;;;;;;;;;;4982293;28;20443;-80
2023/05/30 10:44:38;;;;;;;32.13;3.03;;;;;;;;;;5017411;28;20069;-79
2023/05/30 10:47:34;;;;;;;522.55;45.47;;;;;;;;;;5000045;28;20046;-78
2023/05/30 10:50:14;;;;;;;32.63;3.40;;;;;;;;;;5000917;28;20052;-77
2023/05/30 10:52:51;;;;;;;45.95;3.88;;;;;;;;;;5000852;28;20375;-77
2023/05/30 10:55:31;;;;;;;57.53;4.88;;;;;;;;;;5016682;28;20120;-79
2023/05/30 10:58:26;;;;;;;59.28;4.85;;;;;;;;;;5002346;28;20088;-77
2023/05/30 11:01:21;;;;;;;37.83;3.60;;;;;;;;;;5003355;28;20505;-78
2023/05/30 11:04:04;;;;;;;42.28;3.72;;;;;;;;;;5015947;28;20137;-80
2023/05/30 11:06:43;;;;;;;113.70;9.68;;;;;;;;;;5007400;28;20179;-78
2023/05/30 11:09:21;;;;;;;19.08;2.90;;;;;;;;;;4995950;28;20054;-77
2023/05/30 11:11:58;;;;;;;73.25;6.13;;;;;;;;;;5020160;28;20407;-78
2023/05/30 11:14:39;;;;;;;122.93;9.43;;;;;;;;;;5008995;28;20041;-80
2023/05/30 11:17:29;;;;;;;45.08;4.05;;;;;;;;;;5021696;28;20048;-77
2023/05/30 11:20:21;;;;;;;58.20;4.30;;;;;;;;;;5014978;28;20053;-79
2023/05/30 11:23:02;;;;;;;62.65;5.22;;;;;;;;;;5004553;28;20048;-77
2023/05/30 11:25:48;;;;;;;80.93;6.32;;;;;;;;;;5000384;28;20134;-77
2023/05/30 11:28:35;;;;;;;41.13;3.95;;;;;;;;;;5012771;28;20091;-79
2023/05/30 11:31:20;;;;;;;61.25;5.07;;;;;;;;;;5030882;28;20042;-81
2023/05/30 11:33:56;;;;;;;78.35;6.85;;;;;;;;;;5008506;28;20065;-77
2023/05/30 11:36:40;;;;;;;76.43;6.38;;;;;;;;;;5004668;28;20074;-78
2023/05/30 11:39:15;;;;;;;80.20;7.25;;;;;;;;;;5012994;28;20526;-81
2023/05/30 11:41:52;;;;;;;35.50;3.33;;;;;;;;;;5005793;28;20050;-78
2023/05/30 11:44:28;;;;;;;77.03;6.32;;;;;;;;;;5008322;28;20049;-83
2023/05/30 11:47:03;;;;;;;27.38;2.92;;;;;;;;;;5005028;28;20085;-78
2023/05/30 11:50:02;;;;;;;51.58;4.57;;;;;;;;;;4999887;28;20070;-79
2023/05/30 11:52:43;;;;;;;58.78;4.80;;;;;;;;;;4998233;28;20055;-78
2023/05/30 11:55:21;;;;;;;47.53;4.57;;;;;;;;;;5019059;28;20050;-78
2023/05/30 11:58:02;;;;;;;36.88;4.28;;;;;;;;;;5007580;28;20084;-78
2023/05/30 12:00:41;;;;;;;252.68;17.38;;;;;;;;;;5005438;28;20050;-79
2023/05/30 12:03:20;;;;;;;118.00;9.00;;;;;;;;;;5024153;28;20148;-78
2023/05/30 12:06:10;;;;;;;38.45;3.53;;;;;;;;;;4985963;28;20046;-80
2023/05/30 12:08:48;;;;;;;40.47;3.63;;;;;;;;;;4998866;28;20054;-78
2023/05/30 12:11:25;;;;;;;83.38;6.43;;;;;;;;;;4984362;28;20046;-79
2023/05/30 12:14:05;;;;;;;38.53;3.90;;;;;;;;;;5010988;28;20056;-79
2023/05/30 12:16:42;;;;;;;53.33;4.43;;;;;;;;;;5008248;28;20042;-77
2023/05/30 12:19:33;;;;;;;33.88;3.97;;;;;;;;;;5008627;28;20049;-78
2023/05/30 12:22:09;;;;;;;51.05;4.35;;;;;;;;;;5022665;28;20029;-78
2023/05/30 12:24:47;;;;;;;62.30;5.15;;;;;;;;;;4989459;28;20500;-78
2023/05/30 12:27:23;;;;;;;33.83;3.15;;;;;;;;;;4992868;28;20054;-78
2023/05/30 12:30:10;;;;;;;65.38;5.43;;;;;;;;;;4996554;28;20145;-85
2023/05/30 12:32:44;;;;;;;56.25;4.88;;;;;;;;;;5001913;28;20060;-81
2023/05/30 12:35:26;;;;;;;41.10;3.85;;;;;;;;;;5019818;28;20042;-77
2023/05/30 12:38:04;;;;;;;118.03;8.77;;;;;;;;;;5022350;28;20042;-80
2023/05/30 12:40:50;;;;;;;52.70;4.45;;;;;;;;;;4986920;28;20579;-83
2023/05/30 12:43:30;;;;;;;63.13;4.20;;;;;;;;;;5012972;28;20053;-82
2023/05/30 12:46:14;;;;;;;43.67;3.25;;;;;;;;;;5024617;28;20053;-79
2023/05/30 12:48:52;;;;;;;67.85;5.55;;;;;;;;;;5010703;28;20049;-78
2023/05/30 12:51:25;;;;;;;39.15;4.45;;;;;;;;;;5020646;28;20048;-78
2023/05/30 12:54:01;;;;;;;225.00;14.73;;;;;;;;;;5000850;28;20108;-78
2023/05/30 12:56:40;;;;;;;49.70;4.95;;;;;;;;;;5010286;28;20054;-78
2023/05/30 12:59:19;;;;;;;96.90;7.57;;;;;;;;;;5009379;28;20052;-78
2023/05/30 13:01:58;;;;;;;39.20;3.80;;;;;;;;;;5009176;28;20078;-76
2023/05/30 13:04:33;;;;;;;100.68;10.55;;;;;;;;;;4987034;28;20054;-77
2023/05/30 13:07:11;;;;;;;115.88;8.95;;;;;;;;;;5024163;28;20038;-77
2023/05/30 13:09:47;;;;;;;71.47;4.63;;;;;;;;;;5020089;28;20080;-79
2023/05/30 13:12:20;;;;;;;56.75;4.75;;;;;;;;;;5001856;28;20136;-83
2023/05/30 13:14:58;;;;;;;46.33;4.13;;;;;;;;;;5012214;28;20045;-77
2023/05/30 13:17:37;;;;;;;66.70;4.65;;;;;;;;;;5020028;28;20128;-80
2023/05/30 13:20:12;;;;;;;77.57;6.20;;;;;;;;;;4992568;28;20049;-83
2023/05/30 13:22:48;;;;;;;1271.70;98.25;;;;;;;;;;5009600;28;20043;-77
2023/05/30 13:25:29;;;;;;;57.13;4.93;;;;;;;;;;5016529;28;20064;-80
2023/05/30 13:28:05;;;;;;;58.55;4.95;;;;;;;;;;5012115;28;20034;-81
2023/05/30 13:30:40;;;;;;;97.95;7.60;;;;;;;;;;5004996;28;20053;-79
2023/05/30 13:33:15;;;;;;;51.85;4.40;;;;;;;;;;5003520;28;20053;-77
2023/05/30 13:35:55;;;;;;;37.60;3.70;;;;;;;;;;5001513;28;20046;-76
2023/05/30 13:38:35;;;;;;;69.50;5.82;;;;;;;;;;5003559;28;20037;-79
2023/05/30 13:41:10;;;;;;;77.20;6.70;;;;;;;;;;5009711;28;20042;-81
2023/05/30 13:43:53;;;;;;;76.65;6.07;;;;;;;;;;5008328;28;20045;-77
2023/05/30 13:46:34;;;;;;;181.10;13.60;;;;;;;;;;5018419;28;20431;-81
2023/05/30 13:49:14;;;;;;;44.25;4.28;;;;;;;;;;5011114;28;20048;-77
2023/05/30 13:51:56;;;;;;;68.88;5.68;;;;;;;;;;5018129;28;20052;-76
2023/05/30 13:54:35;;;;;;;82.72;6.70;;;;;;;;;;5017024;28;20080;-77
2023/05/30 13:57:14;;;;;;;52.88;4.78;;;;;;;;;;5004036;28;20145;-78
2023/05/30 13:59:54;;;;;;;44.92;3.92;;;;;;;;;;5000951;28;20046;-82
2023/05/30 14:02:37;;;;;;;61.50;5.28;;;;;;;;;;4999203;28;20134;-83
2023/05/30 14:05:13;;;;;;;54.22;3.53;;;;;;;;;;5009228;28;20073;-77
2023/05/30 14:07:52;;;;;;;163.00;13.10;;;;;;;;;;4991177;28;20061;-76
2023/05/30 14:10:31;;;;;;;54.67;4.22;;;;;;;;;;5015769;28;20038;-78
2023/05/30 14:13:08;;;;;;;78.43;5.72;;;;;;;;;;5003259;28;20048;-82
2023/05/30 14:15:50;;;;;;;64.97;4.93;;;;;;;;;;4998429;28;20053;-79
2023/05/30 14:18:28;;;;;;;35.22;2.90;;;;;;;;;;4983235;28;20054;-78
2023/05/30 14:21:06;;;;;;;239.43;17.98;;;;;;;;;;5002161;28;20041;-75
2023/05/30 14:23:52;;;;;;;85.25;6.93;;;;;;;;;;5004584;28;20100;-78
2023/05/30 14:26:25;;;;;;;61.13;4.63;;;;;;;;;;5005160;28;20160;-74
2023/05/30 14:29:04;;;;;;;48.92;4.18;;;;;;;;;;5003018;28;20384;-79
2023/05/30 14:31:42;;;;;;;114.65;8.20;;;;;;;;;;5006035;28;20050;-81
2023/05/30 14:34:15;;;;;;;212.23;18.92;;;;;;;;;;5021499;28;20046;-75
2023/05/30 14:36:50;;;;;;;57.72;4.72;;;;;;;;;;5003153;28;20708;-75
2023/05/30 14:39:34;;;;;;;84.40;6.22;;;;;;;;;;5001559;28;20133;-74
2023/05/30 14:42:08;;;;;;;88.93;6.05;;;;;;;;;;5015123;28;20119;-74
2023/05/30 14:44:50;;;;;;;113.38;8.70;;;;;;;;;;5002564;28;20057;-78
2023/05/30 14:47:28;;;;;;;89.07;7.75;;;;;;;;;;5010595;28;20099;-74
2023/05/30 14:50:08;;;;;;;63.50;4.63;;;;;;;;;;5000621;28;20549;-78
2023/05/30 14:52:48;;;;;;;130.18;12.18;;;;;;;;;;5022243;28;20046;-78
2023/05/30 14:55:32;;;;;;;117.97;8.77;;;;;;;;;;5018707;28;20046;-77
2023/05/30 14:58:11;;;;;;;58.20;4.38;;;;;;;;;;5012162;28;20557;-78
2023/05/30 15:00:48;;;;;;;163.98;11.90;;;;;;;;;;5010209;28;20065;-80
2023/05/30 15:03:34;;;;;;;107.10;8.40;;;;;;;;;;5018921;28;20092;-77
2023/05/30 15:06:08;;;;;;;45.75;3.63;;;;;;;;;;4996031;28;20549;-76
2023/05/30 15:08:46;;;;;;;73.07;5.25;;;;;;;;;;5007654;28;20417;-77
2023/05/30 15:11:31;;;;;;;45.77;3.93;;;;;;;;;;5021767;28;20069;-78
2023/05/30 15:14:10;;;;;;;35.05;3.22;;;;;;;;;;5004343;28;20038;-77